Time;durP1;ratioP1;P1;durP2;ratioP2;P2;SDS_P1;SDS_P2;PMS_P1;PMS_P2;Temp;Humidity;BMP_temperature;BMP_pressure;BME280_temperature;BME280_humidity;BME280_pressure;Samples;Min_cycle;Max_cycle;Signal;HPM_P1;HPM_P2
2022/06/02 00:00:01;;;;;;;7.72;4.38;;;;;;;;;;4938865;29;20513;-80
2022/06/02 00:02:32;;;;;;;8.73;4.63;;;;;;;;;;4938992;29;20051;-81
2022/06/02 00:05:04;;;;;;;9.40;4.88;;;;;;;;;;4938626;28;20079;-80
2022/06/02 00:07:39;;;;;;;7.57;4.82;;;;;;;;;;4938738;29;20047;-80
2022/06/02 00:10:14;;;;;;;8.65;5.28;;;;;;;;;;4938884;29;20106;-79
2022/06/02 00:12:41;;;;;;;7.75;5.43;;;;;;;;;;4939119;29;20070;-79
2022/06/02 00:15:17;;;;;;;8.77;5.63;;;;;;;;;;4954733;28;20035;-80
2022/06/02 00:17:43;;;;;;;;;;;;;;;;;;4939020;29;20050;-80
2022/06/02 00:20:13;;;;;;;7.97;5.45;;;;;;;;;;4955890;29;19918;-80
2022/06/02 00:22:53;;;;;;;9.85;5.72;;;;;;;;;;4955974;29;20160;-80
2022/06/02 00:25:30;;;;;;;8.30;5.55;;;;;;;;;;4938333;29;20043;-79
2022/06/02 00:27:56;;;;;;;10.82;6.32;;;;;;;;;;4938399;29;20047;-80
2022/06/02 00:30:28;;;;;;;8.73;5.93;;;;;;;;;;4955535;29;20431;-80
2022/06/02 00:33:13;;;;;;;8.77;5.75;;;;;;;;;;4954468;29;20046;-80
2022/06/02 00:35:42;;;;;;;10.18;6.32;;;;;;;;;;4938013;29;20118;-80
2022/06/02 00:38:25;;;;;;;8.80;6.25;;;;;;;;;;4938556;29;20102;-80
2022/06/02 00:40:51;;;;;;;11.65;6.72;;;;;;;;;;4954043;29;20043;-80
2022/06/02 00:43:30;;;;;;;9.52;7.10;;;;;;;;;;4938287;29;20432;-79
2022/06/02 00:45:59;;;;;;;8.70;6.82;;;;;;;;;;4937757;29;20066;-80
2022/06/02 00:48:40;;;;;;;9.88;6.80;;;;;;;;;;4955528;29;20047;-80
2022/06/02 00:51:14;;;;;;;8.50;6.53;;;;;;;;;;4955130;29;20046;-80
2022/06/02 00:59:44;;;;;;;9.50;7.28;;;;;;;;;;4955040;29;20447;-79
2022/06/02 01:02:10;;;;;;;9.48;7.05;;;;;;;;;;4938036;29;20526;-80
2022/06/02 01:04:39;;;;;;;10.48;6.63;;;;;;;;;;4937755;28;20122;-79
2022/06/02 01:07:05;;;;;;;9.68;7.13;;;;;;;;;;4937880;29;20051;-80
2022/06/02 01:09:40;;;;;;;11.05;7.03;;;;;;;;;;4955166;29;20043;-80
2022/06/02 01:12:16;;;;;;;10.85;7.70;;;;;;;;;;4937779;29;20554;-80
2022/06/02 01:14:49;;;;;;;8.75;6.72;;;;;;;;;;4937569;28;20043;-80
2022/06/02 01:17:19;;;;;;;11.30;7.35;;;;;;;;;;4937780;29;20047;-80
2022/06/02 01:20:04;;;;;;;9.45;7.15;;;;;;;;;;4937795;29;20054;-80
2022/06/02 01:22:35;;;;;;;11.02;7.63;;;;;;;;;;4954856;28;20047;-80
2022/06/02 01:25:01;;;;;;;12.32;8.35;;;;;;;;;;4937718;29;20383;-80
2022/06/02 01:27:46;;;;;;;11.52;8.02;;;;;;;;;;4954828;29;20043;-80
2022/06/02 01:30:22;;;;;;;13.00;8.10;;;;;;;;;;4937446;29;20168;-80
2022/06/02 01:33:06;;;;;;;11.20;8.77;;;;;;;;;;4953582;29;20039;-80
2022/06/02 01:35:48;;;;;;;12.95;8.73;;;;;;;;;;4937594;29;20055;-80
2022/06/02 01:38:27;;;;;;;12.07;8.48;;;;;;;;;;4954855;29;20047;-80
2022/06/02 01:40:59;;;;;;;11.40;8.00;;;;;;;;;;4937765;29;20058;-79
2022/06/02 01:43:35;;;;;;;12.48;8.48;;;;;;;;;;4937469;29;20363;-80
2022/06/02 01:46:04;;;;;;;12.40;7.43;;;;;;;;;;4937300;29;20134;-80
2022/06/02 01:48:37;;;;;;;13.10;8.23;;;;;;;;;;4937457;29;20051;-79
2022/06/02 01:51:18;;;;;;;11.52;8.15;;;;;;;;;;4937511;29;20391;-80
2022/06/02 01:53:50;;;;;;;9.82;7.55;;;;;;;;;;4937675;29;20043;-80
2022/06/02 01:56:26;;;;;;;11.73;7.90;;;;;;;;;;4954293;28;20494;-80
2022/06/02 01:59:15;;;;;;;12.73;8.68;;;;;;;;;;4937407;29;20514;-80
2022/06/02 02:02:00;;;;;;;12.10;8.20;;;;;;;;;;4937234;29;20078;-80
2022/06/02 02:04:35;;;;;;;11.52;7.80;;;;;;;;;;4937441;29;20566;-80
2022/06/02 02:07:10;;;;;;;11.07;7.78;;;;;;;;;;4937019;29;20054;-80
2022/06/02 02:09:36;;;;;;;10.93;7.88;;;;;;;;;;4939666;29;20053;-80
2022/06/02 02:12:03;;;;;;;14.73;8.48;;;;;;;;;;4941084;29;20059;-80
2022/06/02 02:14:48;;;;;;;12.85;8.70;;;;;;;;;;4940963;29;20039;-80
2022/06/02 02:17:27;;;;;;;12.30;8.32;;;;;;;;;;4940968;29;20059;-80
2022/06/02 02:19:57;;;;;;;11.40;8.45;;;;;;;;;;4940914;29;20083;-80
2022/06/02 02:22:41;;;;;;;11.20;8.77;;;;;;;;;;4958065;28;20062;-79
2022/06/02 02:25:07;;;;;;;12.27;8.30;;;;;;;;;;4940779;29;20047;-80
2022/06/02 02:28:04;;;;;;;11.80;8.15;;;;;;;;;;4957900;29;20051;-80
2022/06/02 02:30:45;;;;;;;13.32;8.77;;;;;;;;;;4940865;29;20390;-80
2022/06/02 02:33:31;;;;;;;11.52;8.32;;;;;;;;;;4940566;29;20491;-80
2022/06/02 02:36:01;;;;;;;10.25;7.93;;;;;;;;;;4940383;29;20039;-80
2022/06/02 02:38:47;;;;;;;10.60;8.15;;;;;;;;;;4940693;29;20491;-80
2022/06/02 02:41:15;;;;;;;11.93;7.82;;;;;;;;;;4940599;29;20585;-80
2022/06/02 02:43:44;;;;;;;10.52;7.85;;;;;;;;;;4957691;29;20043;-80
2022/06/02 02:46:10;;;;;;;10.68;7.65;;;;;;;;;;4957274;28;20059;-80
2022/06/02 02:48:55;;;;;;;10.48;8.02;;;;;;;;;;4940271;29;20491;-80
2022/06/02 02:51:40;;;;;;;9.75;6.25;;;;;;;;;;4940388;29;20039;-81
2022/06/02 02:54:15;;;;;;;12.80;8.70;;;;;;;;;;4940299;29;20047;-80
2022/06/02 02:56:46;;;;;;;11.40;8.90;;;;;;;;;;4940019;29;20071;-80
2022/06/02 02:59:36;;;;;;;12.77;8.27;;;;;;;;;;4957374;29;20043;-81
2022/06/02 03:02:21;;;;;;;11.95;8.25;;;;;;;;;;4939935;29;20054;-81
2022/06/02 03:04:50;;;;;;;12.18;8.50;;;;;;;;;;4940177;28;20055;-81
2022/06/02 03:07:17;;;;;;;12.18;8.45;;;;;;;;;;4939566;29;20083;-80
2022/06/02 03:09:52;;;;;;;9.80;6.85;;;;;;;;;;4940006;29;20061;-80
2022/06/02 03:12:29;;;;;;;11.68;7.45;;;;;;;;;;4957024;29;20039;-80
2022/06/02 03:15:16;;;;;;;9.27;7.03;;;;;;;;;;4940071;28;20043;-80
2022/06/02 03:17:45;;;;;;;12.30;8.30;;;;;;;;;;4939748;29;20051;-80
2022/06/02 03:20:14;;;;;;;12.52;8.55;;;;;;;;;;4939694;29;20047;-80
2022/06/02 03:22:45;;;;;;;9.90;6.90;;;;;;;;;;4957050;29;20050;-80
2022/06/02 03:25:23;;;;;;;8.07;5.90;;;;;;;;;;4939832;29;20162;-79
2022/06/02 03:28:09;;;;;;;12.00;7.32;;;;;;;;;;4939587;29;20049;-80
2022/06/02 03:30:53;;;;;;;11.55;8.07;;;;;;;;;;4929972;29;20132;-80
2022/06/02 03:33:33;;;;;;;12.23;9.32;;;;;;;;;;4939338;29;20047;-80
2022/06/02 03:36:05;;;;;;;11.68;8.60;;;;;;;;;;4939448;29;20039;-80
2022/06/02 03:38:44;;;;;;;14.73;9.50;;;;;;;;;;4956847;29;20051;-80
2022/06/02 03:41:28;;;;;;;13.60;9.38;;;;;;;;;;4956787;29;20050;-80
2022/06/02 03:43:57;;;;;;;12.70;9.55;;;;;;;;;;4939699;29;20085;-80
2022/06/02 03:46:30;;;;;;;15.23;9.30;;;;;;;;;;4938901;29;20069;-81
2022/06/02 03:48:59;;;;;;;12.30;9.60;;;;;;;;;;4939194;29;20491;-80
2022/06/02 03:51:48;;;;;;;11.95;8.88;;;;;;;;;;4939004;29;20043;-80
2022/06/02 03:54:26;;;;;;;15.88;8.98;;;;;;;;;;4939284;29;20039;-80
2022/06/02 03:56:58;;;;;;;11.93;8.82;;;;;;;;;;4938802;29;20491;-80
2022/06/02 03:59:41;;;;;;;10.32;8.23;;;;;;;;;;4956499;28;20035;-80
2022/06/02 04:02:08;;;;;;;16.00;8.32;;;;;;;;;;4939088;29;20122;-80
2022/06/02 04:04:50;;;;;;;11.15;9.00;;;;;;;;;;4955219;29;20043;-80
2022/06/02 04:07:31;;;;;;;13.85;8.88;;;;;;;;;;4938783;29;20098;-80
2022/06/02 04:10:09;;;;;;;10.57;7.78;;;;;;;;;;4939087;29;20050;-80
2022/06/02 04:15:29;;;;;;;12.40;8.23;;;;;;;;;;4938630;29;20051;-80
2022/06/02 04:18:13;;;;;;;9.50;7.65;;;;;;;;;;4955944;29;20047;-80
2022/06/02 04:20:56;;;;;;;8.88;7.05;;;;;;;;;;4956189;29;20101;-80
2022/06/02 04:23:39;;;;;;;10.38;7.57;;;;;;;;;;4956087;29;20494;-80
2022/06/02 04:26:14;;;;;;;11.15;6.90;;;;;;;;;;4956010;28;20050;-80
2022/06/02 04:28:40;;;;;;;9.15;6.93;;;;;;;;;;4938293;29;20043;-81
2022/06/02 04:31:11;;;;;;;10.35;6.63;;;;;;;;;;4938351;28;20364;-80
2022/06/02 04:33:43;;;;;;;9.93;7.32;;;;;;;;;;4938289;29;20054;-80
2022/06/02 04:36:21;;;;;;;8.85;6.88;;;;;;;;;;4955596;28;20035;-80
2022/06/02 04:39:02;;;;;;;7.85;6.00;;;;;;;;;;4955638;29;20051;-80
2022/06/02 04:41:34;;;;;;;8.63;6.38;;;;;;;;;;4955832;29;20130;-80
2022/06/02 04:44:09;;;;;;;9.20;6.00;;;;;;;;;;4955588;29;20050;-81
2022/06/02 04:46:35;;;;;;;7.68;5.80;;;;;;;;;;4937951;29;20062;-81
2022/06/02 04:49:08;;;;;;;8.05;5.95;;;;;;;;;;4955311;29;20046;-80
2022/06/02 04:51:43;;;;;;;7.60;5.53;;;;;;;;;;4938418;29;20057;-80
2022/06/02 04:54:28;;;;;;;7.60;5.57;;;;;;;;;;4955340;29;20035;-81
2022/06/02 04:56:56;;;;;;;7.95;5.30;;;;;;;;;;4955297;28;20043;-81
2022/06/02 04:59:26;;;;;;;8.60;5.35;;;;;;;;;;4938275;29;20451;-80
2022/06/02 05:02:04;;;;;;;7.18;5.25;;;;;;;;;;4937983;29;20050;-81
2022/06/02 05:04:42;;;;;;;10.05;5.25;;;;;;;;;;4938197;29;20051;-80
2022/06/02 05:07:16;;;;;;;7.25;5.43;;;;;;;;;;4937619;29;20043;-80
2022/06/02 05:09:42;;;;;;;6.93;5.13;;;;;;;;;;4954046;29;20042;-81
2022/06/02 05:12:11;;;;;;;7.88;5.13;;;;;;;;;;4954890;29;20125;-81
2022/06/02 05:14:43;;;;;;;6.88;5.10;;;;;;;;;;4937720;28;20047;-81
2022/06/02 05:17:36;;;;;;;8.88;4.50;;;;;;;;;;4937517;29;20058;-80
2022/06/02 05:20:02;;;;;;;6.80;4.70;;;;;;;;;;4922363;29;20135;-81
2022/06/02 05:22:28;;;;;;;7.97;5.13;;;;;;;;;;4937420;29;20141;-81
2022/06/02 05:25:02;;;;;;;6.65;4.32;;;;;;;;;;4937978;28;20039;-81
2022/06/02 05:27:37;;;;;;;7.38;4.32;;;;;;;;;;4937413;29;20070;-80
2022/06/02 05:30:19;;;;;;;9.02;4.68;;;;;;;;;;4937760;29;20122;-81
2022/06/02 05:32:48;;;;;;;7.18;4.25;;;;;;;;;;4937500;29;20039;-81
2022/06/02 05:35:44;;;;;;;8.63;5.03;;;;;;;;;;4954652;28;20467;-80
2022/06/02 05:38:16;;;;;;;7.05;4.70;;;;;;;;;;4886471;29;20056;-80
2022/06/02 05:41:08;;;;;;;6.85;4.63;;;;;;;;;;4954665;29;20399;-80
2022/06/02 05:43:50;;;;;;;6.72;4.28;;;;;;;;;;4925803;28;20047;-80
2022/06/02 05:46:34;;;;;;;9.38;4.82;;;;;;;;;;4958430;28;20051;-80
2022/06/02 05:49:19;;;;;;;7.80;4.13;;;;;;;;;;4941117;29;20538;-80
2022/06/02 05:51:53;;;;;;;5.70;3.80;;;;;;;;;;4958838;29;20039;-80
2022/06/02 05:54:19;;;;;;;6.65;4.38;;;;;;;;;;4958502;29;20046;-80
2022/06/02 05:57:01;;;;;;;5.90;4.00;;;;;;;;;;4941283;29;20099;-80
2022/06/02 05:59:46;;;;;;;7.05;4.40;;;;;;;;;;4940985;29;20051;-80
2022/06/02 06:02:23;;;;;;;6.53;4.20;;;;;;;;;;4941534;29;20047;-80
2022/06/02 06:04:49;;;;;;;8.43;4.50;;;;;;;;;;4940944;28;20122;-80
2022/06/02 06:07:24;;;;;;;7.97;4.50;;;;;;;;;;4941060;29;20453;-80
2022/06/02 06:10:10;;;;;;;6.97;4.68;;;;;;;;;;4941328;29;20101;-81
2022/06/02 06:12:36;;;;;;;;;;;;;;;;;;4941361;29;20043;-81
2022/06/02 06:15:02;;;;;;;;;;;;;;;;;;4941687;29;19965;-80
2022/06/02 06:17:48;;;;;;;8.27;4.85;;;;;;;;;;4958204;29;19957;-80
2022/06/02 06:20:14;;;;;;;;;;;;;;;;;;4941607;29;20055;-81
2022/06/02 06:22:49;;;;;;;8.52;4.18;;;;;;;;;;4940707;29;20380;-80
2022/06/02 06:25:22;;;;;;;7.93;3.80;;;;;;;;;;4940733;29;20060;-80
2022/06/02 06:27:51;;;;;;;8.20;4.20;;;;;;;;;;4940615;29;20047;-81
2022/06/02 06:30:20;;;;;;;5.95;3.92;;;;;;;;;;4940540;29;20395;-80
2022/06/02 06:32:58;;;;;;;6.95;3.75;;;;;;;;;;4957393;29;20047;-80
2022/06/02 06:35:38;;;;;;;8.38;3.90;;;;;;;;;;4957262;28;20046;-80
2022/06/02 06:38:16;;;;;;;5.57;3.20;;;;;;;;;;4956186;29;20055;-80
2022/06/02 06:40:51;;;;;;;5.53;3.25;;;;;;;;;;4956216;28;20047;-80
2022/06/02 06:43:21;;;;;;;7.07;3.20;;;;;;;;;;4955753;29;20056;-78
2022/06/02 06:46:05;;;;;;;5.38;3.10;;;;;;;;;;4955681;28;20134;-84
2022/06/02 06:48:43;;;;;;;6.20;3.58;;;;;;;;;;4955704;28;20043;-82
2022/06/02 06:51:18;;;;;;;6.80;3.03;;;;;;;;;;4956088;29;20451;-80
2022/06/02 06:54:02;;;;;;;6.65;3.05;;;;;;;;;;4955646;29;20047;-84
2022/06/02 06:56:47;;;;;;;5.53;2.90;;;;;;;;;;4955370;28;20151;-81
2022/06/02 06:59:19;;;;;;;6.13;2.60;;;;;;;;;;4955291;28;20043;-83
2022/06/02 07:02:01;;;;;;;6.28;2.50;;;;;;;;;;4955854;29;20047;-80
2022/06/02 07:04:28;;;;;;;8.07;2.40;;;;;;;;;;4939448;29;20051;-80
2022/06/02 07:07:08;;;;;;;5.13;2.38;;;;;;;;;;4955394;28;20109;-80
2022/06/02 07:09:41;;;;;;;5.18;2.28;;;;;;;;;;4955240;29;20043;-80
2022/06/02 07:14:58;;;;;;;5.50;1.90;;;;;;;;;;4956824;28;20050;-80
2022/06/02 07:17:44;;;;;;;4.50;1.90;;;;;;;;;;4956526;29;20390;-81
2022/06/02 07:20:30;;;;;;;6.55;1.45;;;;;;;;;;4917039;29;20487;-80
2022/06/02 07:22:56;;;;;;;;;;;;;;;;;;4955648;29;20054;-80
2022/06/02 07:25:27;;;;;;;3.92;1.48;;;;;;;;;;4954940;28;20289;-81
2022/06/02 07:28:05;;;;;;;4.55;1.42;;;;;;;;;;4955084;29;20051;-80
2022/06/02 07:30:38;;;;;;;4.88;1.50;;;;;;;;;;4954889;29;20050;-80
2022/06/02 07:33:07;;;;;;;6.38;1.60;;;;;;;;;;4956100;29;20573;-80
2022/06/02 07:35:43;;;;;;;4.93;1.70;;;;;;;;;;4956292;28;20043;-80
2022/06/02 07:38:30;;;;;;;7.97;1.75;;;;;;;;;;4956142;29;20043;-80
2022/06/02 07:41:02;;;;;;;5.40;1.98;;;;;;;;;;4939109;29;20043;-80
2022/06/02 07:43:46;;;;;;;5.38;1.70;;;;;;;;;;4955197;29;20491;-80
2022/06/02 07:46:25;;;;;;;6.13;1.75;;;;;;;;;;4954645;28;20063;-80
2022/06/02 07:48:55;;;;;;;5.97;1.75;;;;;;;;;;4956109;29;20055;-80
2022/06/02 07:51:27;;;;;;;5.18;1.70;;;;;;;;;;4956147;28;20427;-81
2022/06/02 07:54:00;;;;;;;5.90;1.67;;;;;;;;;;4954613;29;20411;-81
2022/06/02 07:56:32;;;;;;;6.53;1.70;;;;;;;;;;4954617;28;20464;-80
2022/06/02 07:59:04;;;;;;;4.28;1.70;;;;;;;;;;4954669;29;20134;-80
2022/06/02 08:01:49;;;;;;;6.03;1.80;;;;;;;;;;4954944;29;20091;-80
2022/06/02 08:04:32;;;;;;;8.63;1.80;;;;;;;;;;4954684;28;20399;-79
2022/06/02 08:07:04;;;;;;;5.65;1.58;;;;;;;;;;4953140;28;20073;-79
2022/06/02 08:09:43;;;;;;;5.13;1.75;;;;;;;;;;4954428;29;20167;-79
2022/06/02 08:12:18;;;;;;;5.85;2.10;;;;;;;;;;4954381;29;20054;-79
2022/06/02 08:14:54;;;;;;;9.32;2.10;;;;;;;;;;4955594;28;20042;-79
2022/06/02 08:17:23;;;;;;;6.07;1.88;;;;;;;;;;4955924;29;20043;-80
2022/06/02 08:20:08;;;;;;;3.38;1.42;;;;;;;;;;4954284;29;20043;-79
2022/06/02 08:22:38;;;;;;;4.45;1.70;;;;;;;;;;4926534;29;20133;-80
2022/06/02 08:25:24;;;;;;;4.82;1.80;;;;;;;;;;4952876;28;20047;-81
2022/06/02 08:27:50;;;;;;;7.10;1.92;;;;;;;;;;4955626;28;20043;-81
2022/06/02 08:30:16;;;;;;;5.55;1.58;;;;;;;;;;4955306;29;20054;-80
2022/06/02 08:33:03;;;;;;;6.45;2.30;;;;;;;;;;4954488;29;20055;-80
2022/06/02 08:35:40;;;;;;;5.13;1.67;;;;;;;;;;4955226;28;20040;-80
2022/06/02 08:38:15;;;;;;;5.38;1.80;;;;;;;;;;4929063;29;20050;-80
2022/06/02 08:40:49;;;;;;;3.78;1.55;;;;;;;;;;4944863;29;20090;-80
2022/06/02 08:43:24;;;;;;;3.80;1.60;;;;;;;;;;4953985;29;20102;-80
2022/06/02 08:45:53;;;;;;;6.63;2.38;;;;;;;;;;4954639;28;20616;-80
2022/06/02 08:48:38;;;;;;;7.38;1.83;;;;;;;;;;4953692;29;20062;-80
2022/06/02 08:51:36;;;;;;;4.95;1.98;;;;;;;;;;4937592;29;20126;-80
2022/06/02 08:54:21;;;;;;;5.68;1.50;;;;;;;;;;4954178;29;20501;-80
2022/06/02 08:57:03;;;;;;;5.78;1.73;;;;;;;;;;4953709;28;20075;-80
2022/06/02 08:59:31;;;;;;;4.68;1.85;;;;;;;;;;4954909;28;20188;-80
2022/06/02 09:02:15;;;;;;;5.70;2.00;;;;;;;;;;4953695;29;20054;-80
2022/06/02 09:05:00;;;;;;;4.72;1.60;;;;;;;;;;4937502;28;20467;-80
2022/06/02 09:07:44;;;;;;;5.27;1.50;;;;;;;;;;4955000;29;20047;-81
2022/06/02 09:10:29;;;;;;;4.32;1.60;;;;;;;;;;4953635;28;20372;-80
2022/06/02 09:12:55;;;;;;;5.13;1.70;;;;;;;;;;4953407;28;20043;-80
2022/06/02 09:15:38;;;;;;;3.92;1.63;;;;;;;;;;4954355;28;20498;-80
2022/06/02 09:18:10;;;;;;;7.82;1.55;;;;;;;;;;4954764;28;20039;-80
2022/06/02 09:20:36;;;;;;;7.65;1.70;;;;;;;;;;4954764;28;20051;-80
2022/06/02 09:23:21;;;;;;;5.93;1.60;;;;;;;;;;4953398;29;20101;-80
2022/06/02 09:26:10;;;;;;;4.78;1.40;;;;;;;;;;4952837;28;20402;-80
2022/06/02 09:28:42;;;;;;;4.95;1.63;;;;;;;;;;4954557;29;20490;-80
2022/06/02 09:31:24;;;;;;;3.17;1.50;;;;;;;;;;4953134;28;20043;-81
2022/06/02 09:34:08;;;;;;;3.30;1.33;;;;;;;;;;4953604;29;20043;-81
2022/06/02 09:37:01;;;;;;;3.92;1.20;;;;;;;;;;4954744;28;20043;-80
2022/06/02 09:39:56;;;;;;;4.38;1.45;;;;;;;;;;4952571;29;20514;-81
2022/06/02 09:42:25;;;;;;;4.53;1.50;;;;;;;;;;4903094;28;20057;-81
2022/06/02 09:45:03;;;;;;;6.05;1.65;;;;;;;;;;4953118;28;20403;-81
2022/06/02 09:47:42;;;;;;;4.80;1.30;;;;;;;;;;4953556;29;20043;-80
2022/06/02 09:50:17;;;;;;;3.33;1.30;;;;;;;;;;4953293;29;20035;-80
2022/06/02 09:52:43;;;;;;;;;;;;;;;;;;4955366;29;20043;-81
2022/06/02 09:55:28;;;;;;;3.58;1.50;;;;;;;;;;4953184;28;19929;-79
2022/06/02 09:58:17;;;;;;;5.22;1.73;;;;;;;;;;4954611;29;20051;-80
2022/06/02 10:00:49;;;;;;;3.95;1.55;;;;;;;;;;4953409;29;20055;-80
2022/06/02 10:03:24;;;;;;;3.25;1.20;;;;;;;;;;4939437;29;20471;-80
2022/06/02 10:05:50;;;;;;;;;;;;;;;;;;4937677;29;20131;-80
2022/06/02 10:08:16;;;;;;;;;;;;;;;;;;4937556;29;19922;-79
2022/06/02 10:11:01;;;;;;;4.35;1.25;;;;;;;;;;4936966;29;19996;-77
2022/06/02 10:13:30;;;;;;;4.57;1.48;;;;;;;;;;4937143;29;20447;-82
2022/06/02 10:16:22;;;;;;;6.15;1.48;;;;;;;;;;4936876;29;20047;-81
2022/06/02 10:19:00;;;;;;;5.78;1.67;;;;;;;;;;4894959;29;20063;-81
2022/06/02 10:21:59;;;;;;;4.38;1.33;;;;;;;;;;4934633;29;20082;-82
2022/06/02 10:24:28;;;;;;;4.18;1.40;;;;;;;;;;4911772;29;20051;-82
2022/06/02 10:26:55;;;;;;;4.78;1.45;;;;;;;;;;4953048;28;20062;-81
2022/06/02 10:29:40;;;;;;;3.47;1.42;;;;;;;;;;4954311;28;20043;-81
2022/06/02 10:32:06;;;;;;;4.18;1.52;;;;;;;;;;4940601;29;20070;-81
2022/06/02 10:34:50;;;;;;;4.03;1.60;;;;;;;;;;4940731;29;20123;-81
2022/06/02 10:37:49;;;;;;;2.78;1.42;;;;;;;;;;4957528;29;20039;-81
2022/06/02 10:40:38;;;;;;;4.72;1.80;;;;;;;;;;4909526;29;20085;-81
2022/06/02 10:43:07;;;;;;;4.22;1.25;;;;;;;;;;4914360;29;20372;-81
2022/06/02 10:45:42;;;;;;;3.42;1.30;;;;;;;;;;4938782;29;20138;-81
2022/06/02 10:48:21;;;;;;;3.67;1.25;;;;;;;;;;4940258;29;20097;-81
2022/06/02 10:51:05;;;;;;;3.22;1.30;;;;;;;;;;4957481;28;20089;-81
2022/06/02 10:53:43;;;;;;;3.83;1.38;;;;;;;;;;4959290;28;20035;-81
2022/06/02 10:56:28;;;;;;;6.72;1.90;;;;;;;;;;4952896;28;21167;-81
2022/06/02 10:59:04;;;;;;;3.78;1.70;;;;;;;;;;4940009;29;20043;-82
2022/06/02 11:01:50;;;;;;;3.60;1.30;;;;;;;;;;4958509;29;20090;-81
2022/06/02 11:04:16;;;;;;;;;;;;;;;;;;4957262;29;20098;-81
2022/06/02 11:06:55;;;;;;;5.10;1.42;;;;;;;;;;4957191;28;19922;-81
2022/06/02 11:09:39;;;;;;;4.40;1.55;;;;;;;;;;4940088;29;20054;-81
2022/06/02 11:12:17;;;;;;;4.13;1.67;;;;;;;;;;4939958;29;20050;-81
2022/06/02 11:14:43;;;;;;;4.53;1.45;;;;;;;;;;4940131;28;20483;-81
2022/06/02 11:17:10;;;;;;;4.45;1.40;;;;;;;;;;4956954;29;20045;-81
2022/06/02 11:19:51;;;;;;;5.18;1.67;;;;;;;;;;4923942;29;20043;-81
2022/06/02 11:22:17;;;;;;;3.88;1.40;;;;;;;;;;4937492;29;20039;-81
2022/06/02 11:24:46;;;;;;;4.95;1.40;;;;;;;;;;4920574;29;20048;-82
2022/06/02 11:27:31;;;;;;;3.65;1.25;;;;;;;;;;4936191;29;20454;-81
2022/06/02 11:30:14;;;;;;;3.75;1.20;;;;;;;;;;4920871;29;20527;-81
2022/06/02 11:33:00;;;;;;;4.97;1.30;;;;;;;;;;4937521;29;20225;-81
2022/06/02 11:35:44;;;;;;;6.68;1.50;;;;;;;;;;4920450;29;20043;-81
2022/06/02 11:38:26;;;;;;;3.92;1.58;;;;;;;;;;4920505;29;20047;-82
2022/06/02 11:41:07;;;;;;;15.25;2.17;;;;;;;;;;4920395;29;20555;-82
2022/06/02 11:43:52;;;;;;;4.50;1.60;;;;;;;;;;4937619;29;20043;-81
2022/06/02 11:46:28;;;;;;;4.22;1.38;;;;;;;;;;4920090;29;20394;-81
2022/06/02 11:49:08;;;;;;;3.75;1.60;;;;;;;;;;4920423;29;20055;-81
2022/06/02 11:51:42;;;;;;;3.83;1.48;;;;;;;;;;4935910;29;20407;-81
2022/06/02 11:54:26;;;;;;;5.55;1.33;;;;;;;;;;4956017;28;20042;-81
2022/06/02 11:57:08;;;;;;;4.95;1.50;;;;;;;;;;4958038;28;20073;-82
2022/06/02 12:00:09;;;;;;;2.65;1.10;;;;;;;;;;4958233;28;20467;-82
2022/06/02 12:02:54;;;;;;;4.00;1.75;;;;;;;;;;4900052;29;20080;-81
2022/06/02 12:05:38;;;;;;;5.63;1.65;;;;;;;;;;4953941;28;20491;-82
2022/06/02 12:08:28;;;;;;;5.07;1.63;;;;;;;;;;4975387;28;20098;-82
2022/06/02 12:11:13;;;;;;;4.88;1.88;;;;;;;;;;4975401;28;20463;-82
2022/06/02 12:13:57;;;;;;;5.47;1.97;;;;;;;;;;4957649;28;20043;-81
2022/06/02 12:16:27;;;;;;;5.47;1.73;;;;;;;;;;4975131;28;20270;-82
2022/06/02 12:18:53;;;;;;;12.85;1.95;;;;;;;;;;4958005;28;20151;-81
2022/06/02 12:21:26;;;;;;;7.47;1.73;;;;;;;;;;4975129;28;20462;-81
2022/06/02 12:24:10;;;;;;;3.15;1.65;;;;;;;;;;4958187;28;20398;-81
2022/06/02 12:26:39;;;;;;;4.00;1.50;;;;;;;;;;4957518;28;20161;-81
2022/06/02 12:29:14;;;;;;;6.82;1.60;;;;;;;;;;4957605;28;20051;-81
2022/06/02 12:32:05;;;;;;;6.30;1.75;;;;;;;;;;4957530;28;20514;-81
2022/06/02 12:34:37;;;;;;;3.63;1.40;;;;;;;;;;4975209;28;20066;-82
2022/06/02 12:37:06;;;;;;;5.45;1.48;;;;;;;;;;4957520;28;20482;-81
2022/06/02 12:39:32;;;;;;;3.30;1.52;;;;;;;;;;4957703;28;20486;-81
2022/06/02 12:41:59;;;;;;;3.92;1.58;;;;;;;;;;4957617;28;20125;-81
2022/06/02 12:44:48;;;;;;;7.22;1.80;;;;;;;;;;4975059;28;20106;-81
2022/06/02 12:47:21;;;;;;;5.57;1.73;;;;;;;;;;4941152;28;20133;-81
2022/06/02 12:50:01;;;;;;;3.95;1.60;;;;;;;;;;4957481;28;20494;-81
2022/06/02 12:52:50;;;;;;;3.85;1.50;;;;;;;;;;4944230;29;20174;-81
2022/06/02 12:55:35;;;;;;;4.32;1.50;;;;;;;;;;4936942;28;20391;-81
2022/06/02 12:58:19;;;;;;;3.17;1.60;;;;;;;;;;4936960;29;20090;-81
2022/06/02 13:00:54;;;;;;;5.88;1.73;;;;;;;;;;4938443;29;20459;-81
2022/06/02 13:03:20;;;;;;;5.53;1.60;;;;;;;;;;4954186;29;20043;-81
2022/06/02 13:05:58;;;;;;;3.65;1.55;;;;;;;;;;4938211;29;20058;-81
2022/06/02 13:08:43;;;;;;;4.65;1.67;;;;;;;;;;4940103;29;20067;-81
2022/06/02 13:11:24;;;;;;;5.50;1.67;;;;;;;;;;4938304;29;20043;-81
2022/06/02 13:14:05;;;;;;;5.10;1.70;;;;;;;;;;4972310;28;20482;-81
2022/06/02 13:16:41;;;;;;;4.05;1.60;;;;;;;;;;4972047;28;20363;-80
2022/06/02 13:19:22;;;;;;;4.10;1.45;;;;;;;;;;4974221;28;20049;-81
2022/06/02 13:22:07;;;;;;;7.20;1.80;;;;;;;;;;4957058;28;20074;-81
2022/06/02 13:24:41;;;;;;;4.28;1.40;;;;;;;;;;4974307;28;20042;-81
2022/06/02 13:27:26;;;;;;;3.60;1.50;;;;;;;;;;4956669;28;20093;-81
2022/06/02 13:30:04;;;;;;;6.30;1.80;;;;;;;;;;4956893;28;20049;-81
2022/06/02 13:32:39;;;;;;;3.53;1.58;;;;;;;;;;4956844;28;20035;-81
2022/06/02 13:35:05;;;;;;;4.53;1.60;;;;;;;;;;4956860;28;20042;-81
2022/06/02 13:37:46;;;;;;;4.00;1.50;;;;;;;;;;4973869;28;20047;-81
2022/06/02 13:40:42;;;;;;;6.15;1.55;;;;;;;;;;4957040;28;20043;-81
2022/06/02 13:43:08;;;;;;;3.53;1.70;;;;;;;;;;4961138;28;20047;-81
2022/06/02 13:45:40;;;;;;;3.83;1.80;;;;;;;;;;4956508;28;20525;-81
2022/06/02 13:48:06;;;;;;;4.25;1.33;;;;;;;;;;4956485;28;20098;-81
2022/06/02 13:50:37;;;;;;;4.70;1.75;;;;;;;;;;4956915;28;20074;-81
2022/06/02 13:53:03;;;;;;;5.88;2.00;;;;;;;;;;4974004;28;20493;-81
2022/06/02 13:58:16;;;;;;;4.28;1.70;;;;;;;;;;4973672;28;20058;-81
2022/06/02 14:00:42;;;;;;;5.07;1.95;;;;;;;;;;4973885;28;20054;-81
2022/06/02 14:03:32;;;;;;;4.63;2.00;;;;;;;;;;4973598;28;20066;-81
2022/06/02 14:06:16;;;;;;;5.63;1.80;;;;;;;;;;4935798;28;20061;-81
2022/06/02 14:09:02;;;;;;;7.32;1.63;;;;;;;;;;4960067;28;20043;-81
2022/06/02 14:11:47;;;;;;;6.07;1.77;;;;;;;;;;4944284;28;20085;-81
2022/06/02 14:14:26;;;;;;;5.70;1.60;;;;;;;;;;4960035;28;20410;-81
2022/06/02 14:16:52;;;;;;;5.38;1.50;;;;;;;;;;4960121;28;20097;-81
2022/06/02 14:19:23;;;;;;;4.07;1.58;;;;;;;;;;4977270;28;20047;-82
2022/06/02 14:22:04;;;;;;;6.57;2.13;;;;;;;;;;4977404;28;20074;-81
2022/06/02 14:24:54;;;;;;;3.55;1.35;;;;;;;;;;4977420;28;20074;-81
2022/06/02 14:27:23;;;;;;;5.93;1.45;;;;;;;;;;4969437;28;20126;-81
2022/06/02 14:29:55;;;;;;;6.30;1.60;;;;;;;;;;4959792;28;20038;-82
2022/06/02 14:32:37;;;;;;;6.32;1.85;;;;;;;;;;4959883;28;20039;-81
2022/06/02 14:35:21;;;;;;;4.55;1.70;;;;;;;;;;4959826;28;20490;-81
2022/06/02 14:37:57;;;;;;;3.80;1.80;;;;;;;;;;4959318;28;20042;-81
2022/06/02 14:40:41;;;;;;;4.28;1.38;;;;;;;;;;4977120;28;20055;-81
2022/06/02 14:43:11;;;;;;;3.55;1.60;;;;;;;;;;4958519;28;20427;-81
2022/06/02 14:45:43;;;;;;;4.30;1.60;;;;;;;;;;4959374;28;20058;-81
2022/06/02 14:48:25;;;;;;;4.57;1.65;;;;;;;;;;4958399;28;20115;-81
2022/06/02 14:51:09;;;;;;;4.32;1.70;;;;;;;;;;4959040;28;20074;-83
2022/06/02 14:53:42;;;;;;;3.40;1.42;;;;;;;;;;4921138;29;20130;-81
2022/06/02 14:56:37;;;;;;;3.83;1.67;;;;;;;;;;4904440;29;20050;-81
2022/06/02 14:59:25;;;;;;;4.20;1.53;;;;;;;;;;4909210;29;20567;-82
2022/06/02 15:02:10;;;;;;;2.92;1.42;;;;;;;;;;4904614;29;20763;-81
2022/06/02 15:04:36;;;;;;;7.22;1.30;;;;;;;;;;4938082;29;20050;-81
2022/06/02 15:07:11;;;;;;;3.80;1.42;;;;;;;;;;4945353;28;20039;-81
2022/06/02 15:09:45;;;;;;;3.70;1.40;;;;;;;;;;4939793;29;20076;-84
2022/06/02 15:12:28;;;;;;;3.67;1.40;;;;;;;;;;4923198;29;20039;-82
2022/06/02 15:14:56;;;;;;;3.72;1.42;;;;;;;;;;4956957;28;20529;-82
2022/06/02 15:17:28;;;;;;;3.95;1.48;;;;;;;;;;4938390;29;20074;-81
2022/06/02 15:20:06;;;;;;;4.25;1.70;;;;;;;;;;4939665;29;20043;-81
2022/06/02 15:22:51;;;;;;;3.75;1.27;;;;;;;;;;4939843;29;20047;-81
2022/06/02 15:25:38;;;;;;;3.55;1.70;;;;;;;;;;4956909;28;20039;-81
2022/06/02 15:28:03;;;;;;;5.25;1.50;;;;;;;;;;4939503;29;20466;-81
2022/06/02 15:30:40;;;;;;;4.57;1.50;;;;;;;;;;4956642;29;20039;-81
2022/06/02 15:33:09;;;;;;;5.13;1.52;;;;;;;;;;4957106;29;20070;-82
2022/06/02 15:35:52;;;;;;;4.57;1.40;;;;;;;;;;4939331;29;20056;-81
2022/06/02 15:38:37;;;;;;;5.63;1.70;;;;;;;;;;4939386;29;20054;-81
2022/06/02 15:41:35;;;;;;;3.67;1.40;;;;;;;;;;4956872;29;20198;-81
2022/06/02 15:44:16;;;;;;;5.05;1.60;;;;;;;;;;4888330;29;20055;-81
2022/06/02 15:47:01;;;;;;;5.03;1.70;;;;;;;;;;4938127;29;20066;-81
2022/06/02 15:49:30;;;;;;;4.07;1.50;;;;;;;;;;4956469;29;20051;-82
2022/06/02 15:51:59;;;;;;;8.00;1.65;;;;;;;;;;4936220;29;20051;-81
2022/06/02 15:54:31;;;;;;;5.93;1.70;;;;;;;;;;4939314;29;20042;-81